sensor_id;sensor_type;location;lat;lon;timestamp;temperature;humidity
15343;DHT22;7771;48.478;8.936;2023-05-23T00:00:58;17.30;99.90
15343;DHT22;7771;48.478;8.936;2023-05-23T00:03:25;17.30;99.90
15343;DHT22;7771;48.478;8.936;2023-05-23T00:05:51;17.30;99.90
15343;DHT22;7771;48.478;8.936;2023-05-23T00:08:18;17.20;99.90
15343;DHT22;7771;48.478;8.936;2023-05-23T00:10:46;17.20;99.90
15343;DHT22;7771;48.478;8.936;2023-05-23T00:13:13;17.10;99.90
15343;DHT22;7771;48.478;8.936;2023-05-23T00:15:41;17.20;99.90
15343;DHT22;7771;48.478;8.936;2023-05-23T00:18:07;17.20;99.90
15343;DHT22;7771;48.478;8.936;2023-05-23T00:20:35;17.10;99.90
15343;DHT22;7771;48.478;8.936;2023-05-23T00:23:03;17.10;99.90
15343;DHT22;7771;48.478;8.936;2023-05-23T00:25:29;17.10;99.90
15343;DHT22;7771;48.478;8.936;2023-05-23T00:27:57;17.10;99.90
15343;DHT22;7771;48.478;8.936;2023-05-23T00:30:24;17.10;99.90
15343;DHT22;7771;48.478;8.936;2023-05-23T00:32:53;17.10;99.90
15343;DHT22;7771;48.478;8.936;2023-05-23T00:35:21;17.10;99.90
15343;DHT22;7771;48.478;8.936;2023-05-23T00:37:47;17.10;99.90
15343;DHT22;7771;48.478;8.936;2023-05-23T00:40:14;17.10;99.90
15343;DHT22;7771;48.478;8.936;2023-05-23T00:42:41;17.00;99.90
15343;DHT22;7771;48.478;8.936;2023-05-23T00:45:07;17.00;99.90
15343;DHT22;7771;48.478;8.936;2023-05-23T00:47:35;17.00;99.90
15343;DHT22;7771;48.478;8.936;2023-05-23T00:50:03;16.90;99.90
15343;DHT22;7771;48.478;8.936;2023-05-23T00:52:30;16.90;99.90
15343;DHT22;7771;48.478;8.936;2023-05-23T00:54:57;17.00;99.90
15343;DHT22;7771;48.478;8.936;2023-05-23T00:57:25;16.90;99.90
15343;DHT22;7771;48.478;8.936;2023-05-23T00:59:52;16.90;99.90
15343;DHT22;7771;48.478;8.936;2023-05-23T01:02:20;16.90;99.90
15343;DHT22;7771;48.478;8.936;2023-05-23T01:04:48;16.90;99.90
15343;DHT22;7771;48.478;8.936;2023-05-23T01:07:19;16.90;99.90
15343;DHT22;7771;48.478;8.936;2023-05-23T01:09:46;16.80;99.90
15343;DHT22;7771;48.478;8.936;2023-05-23T01:14:50;16.80;99.90
15343;DHT22;7771;48.478;8.936;2023-05-23T01:17:20;16.80;99.90
15343;DHT22;7771;48.478;8.936;2023-05-23T01:19:53;16.80;99.90
15343;DHT22;7771;48.478;8.936;2023-05-23T01:22:21;16.80;99.90
15343;DHT22;7771;48.478;8.936;2023-05-23T01:24:53;16.80;99.90
15343;DHT22;7771;48.478;8.936;2023-05-23T01:29:44;16.70;99.90
15343;DHT22;7771;48.478;8.936;2023-05-23T01:32:11;16.70;99.90
15343;DHT22;7771;48.478;8.936;2023-05-23T01:37:08;16.80;99.90
15343;DHT22;7771;48.478;8.936;2023-05-23T01:39:36;16.80;99.90
15343;DHT22;7771;48.478;8.936;2023-05-23T01:42:02;16.80;99.90
15343;DHT22;7771;48.478;8.936;2023-05-23T01:44:30;16.80;99.90
15343;DHT22;7771;48.478;8.936;2023-05-23T01:46:57;16.80;99.90
15343;DHT22;7771;48.478;8.936;2023-05-23T01:49:25;16.90;99.90
15343;DHT22;7771;48.478;8.936;2023-05-23T01:51:52;16.90;99.90
15343;DHT22;7771;48.478;8.936;2023-05-23T01:54:19;16.90;99.90
15343;DHT22;7771;48.478;8.936;2023-05-23T01:56:46;16.90;99.90
15343;DHT22;7771;48.478;8.936;2023-05-23T01:59:12;16.90;99.90
15343;DHT22;7771;48.478;8.936;2023-05-23T02:01:40;16.90;99.90
15343;DHT22;7771;48.478;8.936;2023-05-23T02:04:06;17.00;99.90
15343;DHT22;7771;48.478;8.936;2023-05-23T02:06:33;17.00;99.90
15343;DHT22;7771;48.478;8.936;2023-05-23T02:09:00;17.00;99.90
15343;DHT22;7771;48.478;8.936;2023-05-23T02:11:27;17.10;99.90
15343;DHT22;7771;48.478;8.936;2023-05-23T02:13:53;17.10;99.90
15343;DHT22;7771;48.478;8.936;2023-05-23T02:16:21;17.10;99.90
15343;DHT22;7771;48.478;8.936;2023-05-23T02:18:47;17.10;99.90
15343;DHT22;7771;48.478;8.936;2023-05-23T02:21:15;17.10;99.90
15343;DHT22;7771;48.478;8.936;2023-05-23T02:23:42;17.10;99.90
15343;DHT22;7771;48.478;8.936;2023-05-23T02:26:09;17.10;99.90
15343;DHT22;7771;48.478;8.936;2023-05-23T02:28:36;17.20;99.90
15343;DHT22;7771;48.478;8.936;2023-05-23T02:31:03;17.20;99.90
15343;DHT22;7771;48.478;8.936;2023-05-23T02:33:29;17.20;99.90
15343;DHT22;7771;48.478;8.936;2023-05-23T02:35:57;17.20;99.90
15343;DHT22;7771;48.478;8.936;2023-05-23T02:40:53;17.10;99.90
15343;DHT22;7771;48.478;8.936;2023-05-23T02:43:22;17.10;99.90
15343;DHT22;7771;48.478;8.936;2023-05-23T02:45:48;17.10;99.90
15343;DHT22;7771;48.478;8.936;2023-05-23T02:48:15;17.10;99.90
15343;DHT22;7771;48.478;8.936;2023-05-23T02:50:42;17.10;99.90
15343;DHT22;7771;48.478;8.936;2023-05-23T02:53:08;17.10;99.90
15343;DHT22;7771;48.478;8.936;2023-05-23T02:55:36;17.10;99.90
15343;DHT22;7771;48.478;8.936;2023-05-23T02:58:03;17.20;99.90
15343;DHT22;7771;48.478;8.936;2023-05-23T03:00:30;17.20;99.90
15343;DHT22;7771;48.478;8.936;2023-05-23T03:02:57;17.10;99.90
15343;DHT22;7771;48.478;8.936;2023-05-23T03:05:24;17.10;99.90
15343;DHT22;7771;48.478;8.936;2023-05-23T03:07:52;17.20;99.90
15343;DHT22;7771;48.478;8.936;2023-05-23T03:10:20;17.20;99.90
15343;DHT22;7771;48.478;8.936;2023-05-23T03:12:47;17.10;99.90
15343;DHT22;7771;48.478;8.936;2023-05-23T03:15:15;17.20;99.90
15343;DHT22;7771;48.478;8.936;2023-05-23T03:17:41;17.10;99.90
15343;DHT22;7771;48.478;8.936;2023-05-23T03:20:08;17.10;99.90
15343;DHT22;7771;48.478;8.936;2023-05-23T03:22:36;17.10;99.90
15343;DHT22;7771;48.478;8.936;2023-05-23T03:25:03;17.10;99.90
15343;DHT22;7771;48.478;8.936;2023-05-23T03:27:31;17.10;99.90
15343;DHT22;7771;48.478;8.936;2023-05-23T03:29:58;17.10;99.90
15343;DHT22;7771;48.478;8.936;2023-05-23T03:32:26;17.10;99.90
15343;DHT22;7771;48.478;8.936;2023-05-23T03:34:53;17.10;99.90
15343;DHT22;7771;48.478;8.936;2023-05-23T03:37:20;17.10;99.90
15343;DHT22;7771;48.478;8.936;2023-05-23T03:39:46;17.10;99.90
15343;DHT22;7771;48.478;8.936;2023-05-23T03:42:13;17.10;99.90
15343;DHT22;7771;48.478;8.936;2023-05-23T03:44:40;17.20;99.90
15343;DHT22;7771;48.478;8.936;2023-05-23T03:47:07;17.20;99.90
15343;DHT22;7771;48.478;8.936;2023-05-23T03:49:34;17.20;99.90
15343;DHT22;7771;48.478;8.936;2023-05-23T03:52:01;17.10;99.90
15343;DHT22;7771;48.478;8.936;2023-05-23T03:54:29;17.10;99.90
15343;DHT22;7771;48.478;8.936;2023-05-23T03:56:56;17.10;99.90
15343;DHT22;7771;48.478;8.936;2023-05-23T03:59:23;17.10;99.90
15343;DHT22;7771;48.478;8.936;2023-05-23T04:01:50;17.10;99.90
15343;DHT22;7771;48.478;8.936;2023-05-23T04:04:17;17.10;99.90
15343;DHT22;7771;48.478;8.936;2023-05-23T04:06:44;17.10;99.90
15343;DHT22;7771;48.478;8.936;2023-05-23T04:09:11;17.20;99.90
15343;DHT22;7771;48.478;8.936;2023-05-23T04:11:38;17.20;99.90
15343;DHT22;7771;48.478;8.936;2023-05-23T04:14:05;17.20;99.90
15343;DHT22;7771;48.478;8.936;2023-05-23T04:16:32;17.20;99.90
15343;DHT22;7771;48.478;8.936;2023-05-23T04:19:00;17.20;99.90
15343;DHT22;7771;48.478;8.936;2023-05-23T04:21:27;17.30;99.90
15343;DHT22;7771;48.478;8.936;2023-05-23T04:23:54;17.30;99.90
15343;DHT22;7771;48.478;8.936;2023-05-23T04:26:21;17.30;99.90
15343;DHT22;7771;48.478;8.936;2023-05-23T04:28:48;17.30;99.90
15343;DHT22;7771;48.478;8.936;2023-05-23T04:31:15;17.40;99.90
15343;DHT22;7771;48.478;8.936;2023-05-23T04:33:42;17.40;99.90
15343;DHT22;7771;48.478;8.936;2023-05-23T04:36:10;17.50;99.90
15343;DHT22;7771;48.478;8.936;2023-05-23T04:38:37;17.50;99.90
15343;DHT22;7771;48.478;8.936;2023-05-23T04:41:05;17.50;99.90
15343;DHT22;7771;48.478;8.936;2023-05-23T04:43:32;17.50;99.90
15343;DHT22;7771;48.478;8.936;2023-05-23T04:46:00;17.50;99.90
15343;DHT22;7771;48.478;8.936;2023-05-23T04:50:54;17.60;99.90
15343;DHT22;7771;48.478;8.936;2023-05-23T04:55:49;17.60;99.90
15343;DHT22;7771;48.478;8.936;2023-05-23T04:58:17;17.60;99.90
15343;DHT22;7771;48.478;8.936;2023-05-23T05:00:43;17.60;99.90
15343;DHT22;7771;48.478;8.936;2023-05-23T05:03:11;17.60;99.90
15343;DHT22;7771;48.478;8.936;2023-05-23T05:08:07;17.70;99.90
15343;DHT22;7771;48.478;8.936;2023-05-23T05:10:37;17.70;99.90
15343;DHT22;7771;48.478;8.936;2023-05-23T05:13:03;17.70;99.90
15343;DHT22;7771;48.478;8.936;2023-05-23T05:15:30;17.70;99.90
15343;DHT22;7771;48.478;8.936;2023-05-23T05:20:25;17.60;99.90
15343;DHT22;7771;48.478;8.936;2023-05-23T05:22:54;17.60;99.90
15343;DHT22;7771;48.478;8.936;2023-05-23T05:27:49;17.60;99.90
15343;DHT22;7771;48.478;8.936;2023-05-23T05:32:44;17.60;99.90
15343;DHT22;7771;48.478;8.936;2023-05-23T05:35:11;17.60;99.90
15343;DHT22;7771;48.478;8.936;2023-05-23T05:37:38;17.60;99.90
15343;DHT22;7771;48.478;8.936;2023-05-23T05:40:05;17.60;99.90
15343;DHT22;7771;48.478;8.936;2023-05-23T05:42:32;17.70;99.90
15343;DHT22;7771;48.478;8.936;2023-05-23T05:44:59;17.70;99.90
15343;DHT22;7771;48.478;8.936;2023-05-23T05:47:25;17.70;99.90
15343;DHT22;7771;48.478;8.936;2023-05-23T05:49:52;17.80;99.90
15343;DHT22;7771;48.478;8.936;2023-05-23T05:52:19;17.90;99.90
15343;DHT22;7771;48.478;8.936;2023-05-23T05:54:46;17.90;99.90
15343;DHT22;7771;48.478;8.936;2023-05-23T05:57:14;17.90;99.90
15343;DHT22;7771;48.478;8.936;2023-05-23T06:02:09;18.00;99.90
15343;DHT22;7771;48.478;8.936;2023-05-23T06:04:36;18.10;99.90
15343;DHT22;7771;48.478;8.936;2023-05-23T06:07:03;18.10;99.90
15343;DHT22;7771;48.478;8.936;2023-05-23T06:11:58;18.20;99.90
15343;DHT22;7771;48.478;8.936;2023-05-23T06:14:26;18.30;99.90
15343;DHT22;7771;48.478;8.936;2023-05-23T06:16:52;18.30;99.90
15343;DHT22;7771;48.478;8.936;2023-05-23T06:19:20;18.30;99.90
15343;DHT22;7771;48.478;8.936;2023-05-23T06:21:46;18.40;99.90
15343;DHT22;7771;48.478;8.936;2023-05-23T06:24:14;18.40;99.90
15343;DHT22;7771;48.478;8.936;2023-05-23T06:26:40;18.50;99.90
15343;DHT22;7771;48.478;8.936;2023-05-23T06:29:08;18.50;99.90
15343;DHT22;7771;48.478;8.936;2023-05-23T06:31:34;18.50;99.90
15343;DHT22;7771;48.478;8.936;2023-05-23T06:34:01;18.50;99.90
15343;DHT22;7771;48.478;8.936;2023-05-23T06:36:28;18.60;99.90
15343;DHT22;7771;48.478;8.936;2023-05-23T06:38:56;18.60;99.90
15343;DHT22;7771;48.478;8.936;2023-05-23T06:41:24;18.60;99.90
15343;DHT22;7771;48.478;8.936;2023-05-23T06:43:52;18.70;99.90
15343;DHT22;7771;48.478;8.936;2023-05-23T06:46:20;18.80;99.90
15343;DHT22;7771;48.478;8.936;2023-05-23T06:48:48;18.90;99.90
15343;DHT22;7771;48.478;8.936;2023-05-23T06:53:43;19.10;99.90
15343;DHT22;7771;48.478;8.936;2023-05-23T06:56:11;19.10;99.90
15343;DHT22;7771;48.478;8.936;2023-05-23T07:01:07;19.30;99.90
15343;DHT22;7771;48.478;8.936;2023-05-23T07:06:06;19.20;99.90
15343;DHT22;7771;48.478;8.936;2023-05-23T07:08:33;19.30;99.90
15343;DHT22;7771;48.478;8.936;2023-05-23T07:11:01;19.40;99.90
15343;DHT22;7771;48.478;8.936;2023-05-23T07:13:29;19.40;99.90
15343;DHT22;7771;48.478;8.936;2023-05-23T07:20:53;19.40;99.90
15343;DHT22;7771;48.478;8.936;2023-05-23T07:23:22;19.50;99.90
15343;DHT22;7771;48.478;8.936;2023-05-23T07:25:50;19.50;99.90
15343;DHT22;7771;48.478;8.936;2023-05-23T07:28:16;19.40;99.90
15343;DHT22;7771;48.478;8.936;2023-05-23T07:30:43;19.40;99.90
15343;DHT22;7771;48.478;8.936;2023-05-23T07:33:10;19.40;99.90
15343;DHT22;7771;48.478;8.936;2023-05-23T07:35:36;19.50;99.90
15343;DHT22;7771;48.478;8.936;2023-05-23T07:38:04;19.50;99.90
15343;DHT22;7771;48.478;8.936;2023-05-23T07:40:31;19.40;99.90
15343;DHT22;7771;48.478;8.936;2023-05-23T07:42:58;19.40;99.90
15343;DHT22;7771;48.478;8.936;2023-05-23T07:45:25;19.40;99.90
15343;DHT22;7771;48.478;8.936;2023-05-23T07:47:53;19.40;99.90
15343;DHT22;7771;48.478;8.936;2023-05-23T07:50:21;19.40;99.90
15343;DHT22;7771;48.478;8.936;2023-05-23T07:52:47;19.30;99.90
15343;DHT22;7771;48.478;8.936;2023-05-23T07:55:15;19.40;99.90
15343;DHT22;7771;48.478;8.936;2023-05-23T07:57:42;19.40;99.90
15343;DHT22;7771;48.478;8.936;2023-05-23T08:00:09;19.50;99.90
15343;DHT22;7771;48.478;8.936;2023-05-23T08:02:37;19.50;99.90
15343;DHT22;7771;48.478;8.936;2023-05-23T08:05:04;19.60;99.90
15343;DHT22;7771;48.478;8.936;2023-05-23T08:07:31;19.70;99.90
15343;DHT22;7771;48.478;8.936;2023-05-23T08:12:26;19.60;99.90
15343;DHT22;7771;48.478;8.936;2023-05-23T08:14:52;19.60;99.90
15343;DHT22;7771;48.478;8.936;2023-05-23T08:17:20;19.50;99.90
15343;DHT22;7771;48.478;8.936;2023-05-23T08:19:47;19.50;99.90
15343;DHT22;7771;48.478;8.936;2023-05-23T08:22:15;19.50;99.90
15343;DHT22;7771;48.478;8.936;2023-05-23T08:24:42;19.40;99.90
15343;DHT22;7771;48.478;8.936;2023-05-23T08:27:08;19.40;99.90
15343;DHT22;7771;48.478;8.936;2023-05-23T08:29:35;19.40;99.90
15343;DHT22;7771;48.478;8.936;2023-05-23T08:32:03;19.50;99.90
15343;DHT22;7771;48.478;8.936;2023-05-23T08:36:57;19.40;99.90
15343;DHT22;7771;48.478;8.936;2023-05-23T08:39:25;19.50;99.90
15343;DHT22;7771;48.478;8.936;2023-05-23T08:41:51;19.50;99.90
15343;DHT22;7771;48.478;8.936;2023-05-23T08:44:18;19.50;99.90
15343;DHT22;7771;48.478;8.936;2023-05-23T08:46:45;19.60;99.90
15343;DHT22;7771;48.478;8.936;2023-05-23T08:49:13;19.60;99.90
15343;DHT22;7771;48.478;8.936;2023-05-23T08:51:41;19.60;99.90
15343;DHT22;7771;48.478;8.936;2023-05-23T08:54:07;19.50;99.90
15343;DHT22;7771;48.478;8.936;2023-05-23T08:56:35;19.40;99.90
15343;DHT22;7771;48.478;8.936;2023-05-23T09:01:29;19.30;99.90
15343;DHT22;7771;48.478;8.936;2023-05-23T09:03:56;19.30;99.90
15343;DHT22;7771;48.478;8.936;2023-05-23T09:06:23;19.30;99.90
15343;DHT22;7771;48.478;8.936;2023-05-23T09:08:50;19.30;99.90
15343;DHT22;7771;48.478;8.936;2023-05-23T09:13:46;19.30;99.90
15343;DHT22;7771;48.478;8.936;2023-05-23T09:16:14;19.30;99.90
15343;DHT22;7771;48.478;8.936;2023-05-23T09:23:37;19.30;99.90
15343;DHT22;7771;48.478;8.936;2023-05-23T09:28:33;19.30;99.90
15343;DHT22;7771;48.478;8.936;2023-05-23T09:31:01;19.40;99.90
15343;DHT22;7771;48.478;8.936;2023-05-23T09:33:41;19.50;99.90
15343;DHT22;7771;48.478;8.936;2023-05-23T09:36:06;19.50;99.90
15343;DHT22;7771;48.478;8.936;2023-05-23T09:38:40;19.40;99.90
15343;DHT22;7771;48.478;8.936;2023-05-23T09:41:07;19.40;99.90
15343;DHT22;7771;48.478;8.936;2023-05-23T09:43:35;19.40;99.90
15343;DHT22;7771;48.478;8.936;2023-05-23T09:46:07;19.40;99.90
15343;DHT22;7771;48.478;8.936;2023-05-23T09:48:33;19.50;99.90
15343;DHT22;7771;48.478;8.936;2023-05-23T09:53:31;19.50;99.90
15343;DHT22;7771;48.478;8.936;2023-05-23T09:55:58;19.60;99.90
15343;DHT22;7771;48.478;8.936;2023-05-23T10:00:52;19.70;99.90
15343;DHT22;7771;48.478;8.936;2023-05-23T10:03:21;19.80;99.90
15343;DHT22;7771;48.478;8.936;2023-05-23T10:05:46;19.90;99.90
15343;DHT22;7771;48.478;8.936;2023-05-23T10:08:20;19.90;99.90
15343;DHT22;7771;48.478;8.936;2023-05-23T10:13:36;20.00;99.90
15343;DHT22;7771;48.478;8.936;2023-05-23T10:16:08;20.00;99.90
15343;DHT22;7771;48.478;8.936;2023-05-23T10:18:38;20.00;99.90
15343;DHT22;7771;48.478;8.936;2023-05-23T10:21:02;20.10;99.90
15343;DHT22;7771;48.478;8.936;2023-05-23T10:23:28;20.20;99.90
15343;DHT22;7771;48.478;8.936;2023-05-23T10:25:55;20.30;99.90
15343;DHT22;7771;48.478;8.936;2023-05-23T10:28:23;20.50;99.90
15343;DHT22;7771;48.478;8.936;2023-05-23T10:30:49;20.60;99.90
15343;DHT22;7771;48.478;8.936;2023-05-23T10:33:17;20.70;99.90
15343;DHT22;7771;48.478;8.936;2023-05-23T10:35:59;20.70;99.90
15343;DHT22;7771;48.478;8.936;2023-05-23T10:41:10;20.70;99.90
15343;DHT22;7771;48.478;8.936;2023-05-23T10:44:15;20.70;99.90
15343;DHT22;7771;48.478;8.936;2023-05-23T10:46:21;20.70;99.90
15343;DHT22;7771;48.478;8.936;2023-05-23T10:48:52;20.70;99.90
15343;DHT22;7771;48.478;8.936;2023-05-23T10:51:15;20.70;99.90
15343;DHT22;7771;48.478;8.936;2023-05-23T10:53:42;20.70;99.90
15343;DHT22;7771;48.478;8.936;2023-05-23T10:58:37;20.90;99.90
15343;DHT22;7771;48.478;8.936;2023-05-23T11:01:05;21.10;99.90
15343;DHT22;7771;48.478;8.936;2023-05-23T11:03:35;21.20;99.90
15343;DHT22;7771;48.478;8.936;2023-05-23T11:06:03;21.20;99.90
15343;DHT22;7771;48.478;8.936;2023-05-23T11:08:37;21.20;99.90
15343;DHT22;7771;48.478;8.936;2023-05-23T11:11:04;21.30;99.90
15343;DHT22;7771;48.478;8.936;2023-05-23T11:13:56;21.40;99.90
15343;DHT22;7771;48.478;8.936;2023-05-23T11:19:25;21.40;99.90
15343;DHT22;7771;48.478;8.936;2023-05-23T11:21:35;21.40;99.90
15343;DHT22;7771;48.478;8.936;2023-05-23T11:26:30;21.70;99.90
15343;DHT22;7771;48.478;8.936;2023-05-23T11:31:25;22.00;99.90
15343;DHT22;7771;48.478;8.936;2023-05-23T11:33:52;22.10;99.90
15343;DHT22;7771;48.478;8.936;2023-05-23T11:36:20;22.10;99.90
15343;DHT22;7771;48.478;8.936;2023-05-23T11:38:47;22.20;99.90
15343;DHT22;7771;48.478;8.936;2023-05-23T11:41:13;22.20;99.90
15343;DHT22;7771;48.478;8.936;2023-05-23T11:43:49;22.20;99.90
15343;DHT22;7771;48.478;8.936;2023-05-23T11:48:45;22.20;99.90
15343;DHT22;7771;48.478;8.936;2023-05-23T11:53:42;22.30;99.90
15343;DHT22;7771;48.478;8.936;2023-05-23T11:56:08;22.30;99.90
15343;DHT22;7771;48.478;8.936;2023-05-23T11:58:37;22.30;99.90
15343;DHT22;7771;48.478;8.936;2023-05-23T12:01:03;22.30;99.90
15343;DHT22;7771;48.478;8.936;2023-05-23T12:03:30;22.30;99.90
15343;DHT22;7771;48.478;8.936;2023-05-23T12:05:57;22.30;99.90
15343;DHT22;7771;48.478;8.936;2023-05-23T12:08:24;22.20;99.90
15343;DHT22;7771;48.478;8.936;2023-05-23T12:13:23;22.00;99.90
15343;DHT22;7771;48.478;8.936;2023-05-23T12:15:52;22.00;99.90
15343;DHT22;7771;48.478;8.936;2023-05-23T12:18:17;22.10;99.90
15343;DHT22;7771;48.478;8.936;2023-05-23T12:20:47;22.30;99.90
15343;DHT22;7771;48.478;8.936;2023-05-23T12:23:23;22.40;99.90
15343;DHT22;7771;48.478;8.936;2023-05-23T12:25:51;22.30;99.90
15343;DHT22;7771;48.478;8.936;2023-05-23T12:28:18;22.20;99.90
15343;DHT22;7771;48.478;8.936;2023-05-23T12:30:45;22.20;99.90
15343;DHT22;7771;48.478;8.936;2023-05-23T12:33:12;22.10;99.90
15343;DHT22;7771;48.478;8.936;2023-05-23T12:38:13;22.10;99.90
15343;DHT22;7771;48.478;8.936;2023-05-23T12:40:37;22.00;99.90
15343;DHT22;7771;48.478;8.936;2023-05-23T12:43:07;21.90;99.90
15343;DHT22;7771;48.478;8.936;2023-05-23T12:45:33;21.80;99.90
15343;DHT22;7771;48.478;8.936;2023-05-23T12:52:56;22.00;99.90
15343;DHT22;7771;48.478;8.936;2023-05-23T12:57:51;22.30;99.90
15343;DHT22;7771;48.478;8.936;2023-05-23T13:02:46;22.50;99.90
15343;DHT22;7771;48.478;8.936;2023-05-23T13:05:13;22.60;99.90
15343;DHT22;7771;48.478;8.936;2023-05-23T13:07:46;22.70;99.90
15343;DHT22;7771;48.478;8.936;2023-05-23T13:10:13;22.70;99.90
15343;DHT22;7771;48.478;8.936;2023-05-23T13:12:40;22.70;99.90
15343;DHT22;7771;48.478;8.936;2023-05-23T13:15:07;22.70;99.90
15343;DHT22;7771;48.478;8.936;2023-05-23T13:17:35;22.60;99.90
15343;DHT22;7771;48.478;8.936;2023-05-23T13:20:02;22.50;99.90
15343;DHT22;7771;48.478;8.936;2023-05-23T13:22:29;22.30;99.90
15343;DHT22;7771;48.478;8.936;2023-05-23T13:24:56;22.20;99.90
15343;DHT22;7771;48.478;8.936;2023-05-23T13:29:50;22.00;99.90
15343;DHT22;7771;48.478;8.936;2023-05-23T13:32:17;21.90;99.90
15343;DHT22;7771;48.478;8.936;2023-05-23T13:34:45;22.00;99.90
15343;DHT22;7771;48.478;8.936;2023-05-23T13:37:11;22.00;99.90
15343;DHT22;7771;48.478;8.936;2023-05-23T13:39:38;22.00;99.90
15343;DHT22;7771;48.478;8.936;2023-05-23T13:42:05;21.90;99.90
15343;DHT22;7771;48.478;8.936;2023-05-23T13:44:33;21.90;99.90
15343;DHT22;7771;48.478;8.936;2023-05-23T13:47:09;21.90;99.90
15343;DHT22;7771;48.478;8.936;2023-05-23T13:49:37;21.90;99.90
15343;DHT22;7771;48.478;8.936;2023-05-23T13:52:05;22.10;99.90
15343;DHT22;7771;48.478;8.936;2023-05-23T13:54:33;22.00;99.90
15343;DHT22;7771;48.478;8.936;2023-05-23T13:57:00;22.00;99.80
15343;DHT22;7771;48.478;8.936;2023-05-23T13:59:28;22.00;99.60
15343;DHT22;7771;48.478;8.936;2023-05-23T14:01:56;21.90;99.10
15343;DHT22;7771;48.478;8.936;2023-05-23T14:14:15;21.90;99.30
15343;DHT22;7771;48.478;8.936;2023-05-23T14:16:43;22.00;99.90
15343;DHT22;7771;48.478;8.936;2023-05-23T14:19:11;22.00;99.60
15343;DHT22;7771;48.478;8.936;2023-05-23T14:21:38;22.20;99.60
15343;DHT22;7771;48.478;8.936;2023-05-23T14:24:05;22.20;99.30
15343;DHT22;7771;48.478;8.936;2023-05-23T14:26:32;22.30;98.90
15343;DHT22;7771;48.478;8.936;2023-05-23T14:31:26;22.40;99.10
15343;DHT22;7771;48.478;8.936;2023-05-23T14:33:53;22.50;99.90
15343;DHT22;7771;48.478;8.936;2023-05-23T14:36:20;22.50;99.60
15343;DHT22;7771;48.478;8.936;2023-05-23T14:38:48;22.40;99.90
15343;DHT22;7771;48.478;8.936;2023-05-23T14:41:15;22.40;99.90
15343;DHT22;7771;48.478;8.936;2023-05-23T14:43:42;22.30;99.90
15343;DHT22;7771;48.478;8.936;2023-05-23T14:48:37;22.00;99.90
15343;DHT22;7771;48.478;8.936;2023-05-23T14:51:05;21.80;99.90
15343;DHT22;7771;48.478;8.936;2023-05-23T14:56:01;21.70;99.90
15343;DHT22;7771;48.478;8.936;2023-05-23T14:58:27;21.60;99.90
15343;DHT22;7771;48.478;8.936;2023-05-23T15:00:55;21.60;99.80
15343;DHT22;7771;48.478;8.936;2023-05-23T15:05:49;21.70;99.60
15343;DHT22;7771;48.478;8.936;2023-05-23T15:08:17;21.70;99.90
15343;DHT22;7771;48.478;8.936;2023-05-23T15:10:44;21.70;99.60
15343;DHT22;7771;48.478;8.936;2023-05-23T15:13:11;21.70;99.80
15343;DHT22;7771;48.478;8.936;2023-05-23T15:18:06;21.60;99.50
15343;DHT22;7771;48.478;8.936;2023-05-23T15:20:33;21.50;99.90
15343;DHT22;7771;48.478;8.936;2023-05-23T15:23:00;21.50;99.90
15343;DHT22;7771;48.478;8.936;2023-05-23T15:25:28;21.50;99.90
15343;DHT22;7771;48.478;8.936;2023-05-23T15:27:54;21.50;99.90
15343;DHT22;7771;48.478;8.936;2023-05-23T15:30:22;21.40;99.80
15343;DHT22;7771;48.478;8.936;2023-05-23T15:32:50;21.30;99.80
15343;DHT22;7771;48.478;8.936;2023-05-23T15:35:17;21.30;99.90
15343;DHT22;7771;48.478;8.936;2023-05-23T15:37:43;21.20;99.90
15343;DHT22;7771;48.478;8.936;2023-05-23T15:42:39;21.00;99.90
15343;DHT22;7771;48.478;8.936;2023-05-23T15:45:06;21.00;99.90
15343;DHT22;7771;48.478;8.936;2023-05-23T15:47:33;21.00;99.90
15343;DHT22;7771;48.478;8.936;2023-05-23T15:50:00;21.00;99.90
15343;DHT22;7771;48.478;8.936;2023-05-23T15:52:27;21.10;99.90
15343;DHT22;7771;48.478;8.936;2023-05-23T15:54:55;21.20;99.90
15343;DHT22;7771;48.478;8.936;2023-05-23T15:57:22;21.30;99.90
15343;DHT22;7771;48.478;8.936;2023-05-23T15:59:49;21.40;99.90
15343;DHT22;7771;48.478;8.936;2023-05-23T16:04:44;21.50;99.90
15343;DHT22;7771;48.478;8.936;2023-05-23T16:07:12;21.40;99.90
15343;DHT22;7771;48.478;8.936;2023-05-23T16:09:38;21.30;99.90
15343;DHT22;7771;48.478;8.936;2023-05-23T16:12:05;21.20;99.90
15343;DHT22;7771;48.478;8.936;2023-05-23T16:14:32;21.10;99.90
15343;DHT22;7771;48.478;8.936;2023-05-23T16:16:58;21.20;99.90
15343;DHT22;7771;48.478;8.936;2023-05-23T16:19:25;21.30;99.90
15343;DHT22;7771;48.478;8.936;2023-05-23T16:21:53;21.30;99.90
15343;DHT22;7771;48.478;8.936;2023-05-23T16:24:21;21.20;99.90
15343;DHT22;7771;48.478;8.936;2023-05-23T16:26:48;21.10;99.90
15343;DHT22;7771;48.478;8.936;2023-05-23T16:29:15;21.00;99.90
15343;DHT22;7771;48.478;8.936;2023-05-23T16:31:42;20.90;99.90
15343;DHT22;7771;48.478;8.936;2023-05-23T16:34:10;20.90;99.90
15343;DHT22;7771;48.478;8.936;2023-05-23T16:36:37;20.90;99.90
15343;DHT22;7771;48.478;8.936;2023-05-23T16:39:04;21.00;99.90
15343;DHT22;7771;48.478;8.936;2023-05-23T16:41:31;21.00;99.90
15343;DHT22;7771;48.478;8.936;2023-05-23T16:43:59;21.00;99.90
15343;DHT22;7771;48.478;8.936;2023-05-23T16:51:26;21.00;99.90
15343;DHT22;7771;48.478;8.936;2023-05-23T16:56:21;20.80;99.90
15343;DHT22;7771;48.478;8.936;2023-05-23T17:01:18;20.60;99.90
15343;DHT22;7771;48.478;8.936;2023-05-23T17:03:44;20.50;99.90
15343;DHT22;7771;48.478;8.936;2023-05-23T17:06:11;20.40;99.90
15343;DHT22;7771;48.478;8.936;2023-05-23T17:08:38;20.40;99.90
15343;DHT22;7771;48.478;8.936;2023-05-23T17:11:06;20.30;99.90
15343;DHT22;7771;48.478;8.936;2023-05-23T17:13:32;20.30;99.90
15343;DHT22;7771;48.478;8.936;2023-05-23T17:16:00;20.30;99.90
15343;DHT22;7771;48.478;8.936;2023-05-23T17:18:27;20.30;99.90
15343;DHT22;7771;48.478;8.936;2023-05-23T17:20:54;20.30;99.90
15343;DHT22;7771;48.478;8.936;2023-05-23T17:23:21;20.30;99.90
15343;DHT22;7771;48.478;8.936;2023-05-23T17:28:16;20.30;99.90
15343;DHT22;7771;48.478;8.936;2023-05-23T17:30:43;20.30;99.90
15343;DHT22;7771;48.478;8.936;2023-05-23T17:33:10;20.20;99.90
15343;DHT22;7771;48.478;8.936;2023-05-23T17:35:37;20.10;99.90
15343;DHT22;7771;48.478;8.936;2023-05-23T17:38:05;20.10;99.90
15343;DHT22;7771;48.478;8.936;2023-05-23T17:40:33;20.00;99.90
15343;DHT22;7771;48.478;8.936;2023-05-23T17:43:01;20.00;99.90
15343;DHT22;7771;48.478;8.936;2023-05-23T17:45:28;19.90;99.90
15343;DHT22;7771;48.478;8.936;2023-05-23T17:50:23;19.70;99.90
15343;DHT22;7771;48.478;8.936;2023-05-23T17:52:50;19.60;99.90
15343;DHT22;7771;48.478;8.936;2023-05-23T17:55:18;19.60;99.90
15343;DHT22;7771;48.478;8.936;2023-05-23T17:57:44;19.50;99.90
15343;DHT22;7771;48.478;8.936;2023-05-23T18:02:40;19.40;99.90
15343;DHT22;7771;48.478;8.936;2023-05-23T18:05:07;19.30;99.90
15343;DHT22;7771;48.478;8.936;2023-05-23T18:07:35;19.20;99.90
15343;DHT22;7771;48.478;8.936;2023-05-23T18:10:02;19.10;99.90
15343;DHT22;7771;48.478;8.936;2023-05-23T18:12:30;19.00;99.90